Airfield :
LOGIN :

Register | Disclaimer

   EN    FR    IT 

 










Legend :    VFR   Marginal VFR   IFR   Intensive IFR   Very Intensive IFR
Visi :
Ceiling :
>= 8 km
>= 3000ft
5 to 8 km
1000 to 3000 ft
1500m to 5 km
500 to 1000 ft
800 to 1500m
200 to 500 ft
< 800m
< 200 ft
Symbols :   Thunderstorms  Fog  Heavy snow  Heavy precipitations  Wind > 20 kt
SIGMETs :     Misc.  Thunderstorms  Icing  Turbulence  Mountain Waves  Volcanic Ashes






- Airport Elevation : 870 ft
- IATA code : ETZ


LFJL - Metz Nancy Lorraine

CURRENT METAR :
  • 101930Z AUTO 22008KT CAVOK 12/06 Q1010 NOSIG

EXPIRED METARs :
  • 101900Z AUTO 20006KT 180V250 9999 OVC048 12/07 Q1010 NOSIG
  • 101830Z AUTO 18007KT 9999 OVC048 12/07 Q1009 NOSIG
  • 101800Z AUTO 12008KT CAVOK 12/07 Q1009 NOSIG
  • 101730Z AUTO 11006KT CAVOK 12/08 Q1009 NOSIG
  • 101700Z AUTO 13005KT CAVOK 12/07 Q1010 NOSIG

TAF TAF LFJL
Valid from the 10 at 18:00 until the 11 at 18:00 UTC


101700Z 1018/1118 16008KT CAVOK
TEMPO 1021/1102 -SHRA
BECMG 1102/1104 BKN020
TEMPO 1107/1118 4000 -RA BKN008
BECMG 1112/1114 32010KT



MET'MAP, your aeronautical weather chart ! - Copyright ORBIFLY December 2007 - Disclaimer

ORBIFLY MET'MAP TEAM :

Programming & Development : Alexandra Zaïnal
Concept & original design : Baudouin d'Aumeries
Assistance for programming : Marc-Olivier Méhu
Technical & hardware support : Manuel Goepfert

Contact : metmap@orbifly.com




SOURCES & CREDITS :

   NOAA